Time;durP1;ratioP1;P1;durP2;ratioP2;P2;SDS_P1;SDS_P2;PMS_P1;PMS_P2;Temp;Humidity;BMP_temperature;BMP_pressure;BME280_temperature;BME280_humidity;BME280_pressure;Samples;Min_cycle;Max_cycle;Signal;HPM_P1;HPM_P2
2022/12/29 00:01:27;;;;;;;5.78;4.65;;;9.60;99.90;;;;;;5094022;28;20096;-68
2022/12/29 00:03:54;;;;;;;5.55;4.50;;;9.50;99.90;;;;;;5094123;28;20403;-69
2022/12/29 00:06:23;;;;;;;5.03;4.32;;;9.60;99.90;;;;;;5093422;28;20051;-68
2022/12/29 00:08:49;;;;;;;6.78;4.57;;;9.60;99.90;;;;;;5111294;28;20039;-68
2022/12/29 00:11:19;;;;;;;6.55;4.43;;;9.50;99.90;;;;;;5131793;28;20043;-69
2022/12/29 00:16:31;;;;;;;5.22;4.30;;;9.60;99.90;;;;;;5094103;28;20050;-68
2022/12/29 00:18:58;;;;;;;5.65;3.78;;;9.50;99.90;;;;;;5113983;27;20040;-69
2022/12/29 00:35:28;;;;;;;4.22;3.70;;;9.70;99.90;;;;;;5115241;27;20043;-68
2022/12/29 00:46:15;;;;;;;4.00;3.50;;;9.80;99.90;;;;;;5097112;28;20036;-68
2022/12/29 00:51:26;;;;;;;5.10;3.85;;;9.90;99.90;;;;;;5115359;27;20050;-66
2022/12/29 00:53:55;;;;;;;4.53;3.80;;;9.80;99.90;;;;;;5097293;28;20051;-66
2022/12/29 00:56:21;;;;;;;4.80;4.13;;;9.90;99.90;;;;;;5114810;27;20043;-66
2022/12/29 00:58:48;;;;;;;4.47;3.75;;;9.90;99.90;;;;;;5115480;27;20522;-67
2022/12/29 01:01:15;;;;;;;4.85;3.92;;;9.80;99.90;;;;;;5096659;28;20050;-67
2022/12/29 01:03:42;;;;;;;6.18;4.13;;;9.90;99.90;;;;;;5096572;28;20044;-67
2022/12/29 01:06:11;;;;;;;4.63;3.95;;;9.90;99.90;;;;;;5115247;27;20399;-67
2022/12/29 01:08:39;;;;;;;4.85;4.30;;;9.90;99.90;;;;;;5115367;28;20058;-66
2022/12/29 01:11:07;;;;;;;5.50;4.18;;;9.80;99.90;;;;;;5110836;27;20479;-66
2022/12/29 01:13:36;;;;;;;5.05;4.13;;;9.90;99.90;;;;;;5134660;27;20456;-65
2022/12/29 01:16:04;;;;;;;5.30;3.85;;;9.80;99.90;;;;;;5134539;27;20406;-66
2022/12/29 01:18:31;;;;;;;7.35;4.38;;;9.80;99.90;;;;;;5134322;27;20050;-66
2022/12/29 01:21:01;;;;;;;8.02;4.30;;;9.90;99.90;;;;;;5114713;27;20055;-66
2022/12/29 01:23:29;;;;;;;4.78;4.15;;;9.90;99.90;;;;;;5134150;27;20054;-67
2022/12/29 01:25:56;;;;;;;5.03;4.32;;;9.80;99.90;;;;;;5134427;27;20058;-66
2022/12/29 01:28:25;;;;;;;4.30;3.88;;;9.90;99.90;;;;;;5134457;27;20054;-66
2022/12/29 01:30:52;;;;;;;5.80;4.78;;;9.80;99.90;;;;;;5095085;28;20446;-66
2022/12/29 01:33:19;;;;;;;4.32;3.92;;;9.90;99.90;;;;;;5132952;27;20055;-66
2022/12/29 01:35:46;;;;;;;5.22;3.92;;;9.90;99.90;;;;;;5134139;27;20043;-65
2022/12/29 01:38:12;;;;;;;6.97;4.38;;;9.80;99.90;;;;;;5133536;27;20062;-66
2022/12/29 01:40:47;;;;;;;4.88;4.32;;;9.80;99.90;;;;;;5113574;27;20104;-65
2022/12/29 01:43:15;;;;;;;4.85;4.00;;;9.90;99.90;;;;;;5113804;27;20054;-65
2022/12/29 01:45:49;;;;;;;8.35;4.63;;;9.90;99.90;;;;;;5114587;27;20092;-66
2022/12/29 01:48:16;;;;;;;5.50;4.28;;;9.90;99.90;;;;;;5133609;27;20043;-66
2022/12/29 01:50:50;;;;;;;5.90;4.38;;;9.80;99.90;;;;;;5133377;27;20499;-66
2022/12/29 01:53:20;;;;;;;8.52;5.00;;;9.80;99.90;;;;;;5098747;28;20047;-66
2022/12/29 01:55:52;;;;;;;7.30;4.80;;;9.90;99.90;;;;;;5114542;27;20403;-66
2022/12/29 01:58:22;;;;;;;5.97;4.85;;;9.80;99.90;;;;;;5113762;27;20055;-66
2022/12/29 02:00:50;;;;;;;5.63;4.83;;;9.70;99.90;;;;;;5114044;27;20411;-65
2022/12/29 02:03:20;;;;;;;5.55;4.05;;;9.70;99.90;;;;;;5114438;27;20047;-67
2022/12/29 02:05:52;;;;;;;6.73;5.03;;;9.80;99.90;;;;;;5095332;28;20407;-66
2022/12/29 02:08:20;;;;;;;5.95;4.80;;;9.70;99.90;;;;;;5114065;28;20044;-66
2022/12/29 02:10:48;;;;;;;5.38;4.68;;;9.60;99.90;;;;;;5095453;28;20047;-65
2022/12/29 02:13:16;;;;;;;9.02;4.53;;;9.70;99.90;;;;;;5095352;28;20047;-65
2022/12/29 02:15:56;;;;;;;6.00;4.63;;;9.70;99.90;;;;;;5095438;28;20131;-67
2022/12/29 02:18:33;;;;;;;5.15;4.20;;;9.60;99.90;;;;;;5095777;28;20048;-67
2022/12/29 02:21:32;;;;;;;6.10;4.13;;;9.70;99.90;;;;;;5095118;28;20051;-67
2022/12/29 02:24:34;;;;;;;5.45;3.92;;;9.60;99.90;;;;;;5095610;28;20047;-67
2022/12/29 02:27:33;;;;;;;4.03;3.58;;;9.70;99.90;;;;;;5113235;27;20043;-67
2022/12/29 02:30:08;;;;;;;4.47;3.30;;;9.70;99.90;;;;;;5051802;28;20054;-67
2022/12/29 02:32:45;;;;;;;4.13;3.17;;;9.70;99.90;;;;;;5109656;27;20384;-66
2022/12/29 02:35:19;;;;;;;6.65;3.42;;;9.70;99.90;;;;;;5113217;28;20067;-65
2022/12/29 02:37:57;;;;;;;5.57;3.10;;;9.90;99.90;;;;;;5095341;28;20047;-66
2022/12/29 02:40:31;;;;;;;5.20;3.13;;;9.70;99.90;;;;;;5113250;27;20058;-65
2022/12/29 02:43:05;;;;;;;5.47;2.92;;;9.70;99.90;;;;;;5113502;28;20047;-67
2022/12/29 02:45:37;;;;;;;4.70;2.67;;;9.70;99.90;;;;;;5095262;28;20070;-66
2022/12/29 02:48:15;;;;;;;4.32;2.63;;;9.70;99.90;;;;;;5094324;28;20044;-66
2022/12/29 02:50:49;;;;;;;3.92;2.50;;;9.80;99.90;;;;;;5131869;27;20047;-67
2022/12/29 02:54:40;;;;;;;3.67;2.58;;;9.80;99.90;;;;;;5113198;27;20487;-66
2022/12/29 02:56:06;;;;;;;4.25;3.40;;;9.70;99.90;;;;;;5112503;27;20047;-66
2022/12/29 02:58:33;;;;;;;3.00;2.53;;;9.70;99.90;;;;;;5112236;28;20122;-66
2022/12/29 03:01:13;;;;;;;3.72;2.42;;;9.70;99.90;;;;;;5113134;27;20048;-66
2022/12/29 03:03:56;;;;;;;5.25;2.60;;;9.80;99.90;;;;;;5108888;27;20047;-66
2022/12/29 03:06:33;;;;;;;4.28;2.70;;;9.80;99.90;;;;;;5113174;28;20061;-66
2022/12/29 03:09:09;;;;;;;3.40;2.38;;;9.70;99.90;;;;;;5112711;28;20040;-66
2022/12/29 03:17:27;;;;;;;3.47;2.33;;;9.70;99.90;;;;;;5093821;28;20075;-67
2022/12/29 03:20:05;;;;;;;4.35;2.38;;;9.60;99.90;;;;;;5094574;28;20048;-67
2022/12/29 03:22:37;;;;;;;3.22;2.20;;;9.70;99.90;;;;;;5094445;28;20074;-66
2022/12/29 03:25:07;;;;;;;3.45;2.17;;;9.60;99.90;;;;;;5129643;28;20047;-67
2022/12/29 03:27:39;;;;;;;2.80;2.10;;;9.60;99.90;;;;;;5113097;28;20050;-67
2022/12/29 03:30:08;;;;;;;4.63;2.03;;;9.60;99.90;;;;;;5111876;28;20051;-66
2022/12/29 03:32:39;;;;;;;2.67;1.90;;;9.50;99.90;;;;;;5112961;28;20052;-66
2022/12/29 03:35:11;;;;;;;4.60;1.92;;;9.40;99.90;;;;;;5113061;28;20047;-66
2022/12/29 03:37:42;;;;;;;4.32;2.50;;;9.40;99.90;;;;;;5112361;28;20122;-67
2022/12/29 03:40:10;;;;;;;2.65;1.90;;;9.50;99.90;;;;;;5094162;28;20066;-66
2022/12/29 03:42:39;;;;;;;4.72;1.95;;;9.30;99.90;;;;;;5112703;28;20056;-67
2022/12/29 03:45:08;;;;;;;3.67;1.70;;;9.30;99.90;;;;;;5129237;28;20046;-67
2022/12/29 03:47:35;;;;;;;4.53;1.85;;;9.30;99.90;;;;;;5132054;28;20055;-67
2022/12/29 03:50:02;;;;;;;4.82;2.13;;;9.30;99.90;;;;;;5131879;28;20837;-67
2022/12/29 03:52:30;;;;;;;3.97;2.55;;;9.30;99.90;;;;;;5131226;28;20042;-67
2022/12/29 03:54:57;;;;;;;5.40;2.00;;;9.30;99.90;;;;;;5115685;27;20040;-67
2022/12/29 03:57:24;;;;;;;2.40;1.70;;;9.20;99.90;;;;;;5115491;27;20484;-67
2022/12/29 03:59:51;;;;;;;4.32;2.00;;;9.20;99.90;;;;;;5115827;27;20066;-66
2022/12/29 04:02:18;;;;;;;3.10;1.98;;;9.20;99.90;;;;;;5136107;27;20047;-66
2022/12/29 04:04:45;;;;;;;11.00;2.22;;;9.20;99.90;;;;;;5135949;27;20406;-66
2022/12/29 04:07:12;;;;;;;4.43;2.22;;;9.20;99.90;;;;;;5115591;27;20047;-66
2022/12/29 04:09:40;;;;;;;4.43;2.08;;;9.20;99.90;;;;;;5098306;28;20059;-67
2022/12/29 04:12:07;;;;;;;4.85;2.28;;;9.20;99.90;;;;;;5097386;27;20062;-67
2022/12/29 04:14:34;;;;;;;4.15;2.10;;;9.20;99.90;;;;;;5116415;27;20051;-67
2022/12/29 04:17:01;;;;;;;4.00;2.13;;;9.30;99.90;;;;;;5116439;27;20044;-67
2022/12/29 04:19:27;;;;;;;3.50;2.00;;;9.30;99.90;;;;;;5097346;28;20093;-67
2022/12/29 04:21:54;;;;;;;5.40;1.88;;;9.40;99.90;;;;;;5110430;27;20054;-67
2022/12/29 04:24:21;;;;;;;4.05;2.00;;;9.30;99.90;;;;;;5135460;27;20051;-67
2022/12/29 04:26:50;;;;;;;2.67;1.70;;;9.40;99.90;;;;;;5134887;27;20043;-67
2022/12/29 04:29:17;;;;;;;5.63;1.75;;;9.40;99.90;;;;;;5116634;27;20055;-67
2022/12/29 04:31:44;;;;;;;4.60;1.70;;;9.50;99.90;;;;;;5115295;27;20047;-67
2022/12/29 04:34:11;;;;;;;3.42;1.67;;;9.50;99.90;;;;;;5115811;27;20051;-67
2022/12/29 04:36:39;;;;;;;8.80;1.75;;;9.60;99.90;;;;;;5135452;27;20055;-67
2022/12/29 04:39:06;;;;;;;6.70;1.73;;;9.80;99.90;;;;;;5116585;27;20380;-67
2022/12/29 04:41:33;;;;;;;4.75;1.83;;;9.80;99.90;;;;;;5115313;27;20047;-67
2022/12/29 04:44:01;;;;;;;4.05;1.63;;;9.80;99.90;;;;;;5115078;27;20055;-67
2022/12/29 04:46:28;;;;;;;8.43;2.22;;;9.70;99.90;;;;;;5135136;27;20043;-67
2022/12/29 04:48:55;;;;;;;4.72;1.63;;;9.70;99.90;;;;;;5134520;27;20398;-67
2022/12/29 04:51:22;;;;;;;6.50;2.65;;;9.70;99.90;;;;;;5114317;27;20047;-67
2022/12/29 04:53:49;;;;;;;5.72;1.58;;;9.60;99.90;;;;;;5115810;27;20085;-66
2022/12/29 04:56:16;;;;;;;3.45;1.50;;;9.60;99.90;;;;;;5134590;27;20047;-66
2022/12/29 04:58:43;;;;;;;4.20;1.70;;;9.50;99.90;;;;;;5115897;27;20077;-67
2022/12/29 05:01:11;;;;;;;4.25;1.60;;;9.40;99.90;;;;;;5134376;27;20050;-67
2022/12/29 05:03:38;;;;;;;11.13;2.03;;;9.40;99.90;;;;;;5097156;28;20442;-67
2022/12/29 05:06:05;;;;;;;7.45;1.90;;;9.30;99.90;;;;;;5095467;28;20062;-66
2022/12/29 05:08:32;;;;;;;7.22;2.10;;;9.30;99.90;;;;;;5096000;28;20820;-67
2022/12/29 05:10:59;;;;;;;7.25;1.98;;;9.30;99.90;;;;;;5115318;27;20048;-67
2022/12/29 05:13:26;;;;;;;10.73;2.13;;;9.20;99.90;;;;;;5096943;28;20048;-67
2022/12/29 05:15:53;;;;;;;8.02;1.88;;;9.20;99.90;;;;;;5114774;27;20470;-68
2022/12/29 05:18:22;;;;;;;9.20;2.78;;;9.20;99.90;;;;;;5096903;28;20058;-67
2022/12/29 05:20:49;;;;;;;6.97;2.40;;;9.20;99.90;;;;;;5114953;27;20040;-67
2022/12/29 05:23:16;;;;;;;6.03;2.17;;;9.10;99.90;;;;;;5096054;28;20479;-67
2022/12/29 05:25:44;;;;;;;9.48;2.78;;;9.10;99.90;;;;;;5096750;28;20133;-67
2022/12/29 05:28:11;;;;;;;6.05;2.33;;;9.20;99.90;;;;;;5096662;28;20076;-67
2022/12/29 05:30:38;;;;;;;10.70;2.10;;;9.10;99.90;;;;;;5095810;27;20055;-67
2022/12/29 05:33:06;;;;;;;6.25;2.10;;;9.10;99.90;;;;;;5114768;27;20051;-67
2022/12/29 05:35:34;;;;;;;8.80;2.97;;;9.10;99.90;;;;;;5113638;27;20136;-67
2022/12/29 05:38:01;;;;;;;8.98;2.92;;;9.00;99.90;;;;;;5098636;28;20044;-67
2022/12/29 05:40:28;;;;;;;10.02;2.58;;;9.00;99.90;;;;;;5095899;28;20080;-66
2022/12/29 05:42:55;;;;;;;7.00;2.33;;;9.00;99.90;;;;;;5114637;27;20051;-66
2022/12/29 05:45:22;;;;;;;9.63;2.20;;;9.00;99.90;;;;;;5114162;27;20047;-67
2022/12/29 05:47:49;;;;;;;6.60;2.55;;;9.00;99.90;;;;;;5096134;28;20407;-68
2022/12/29 05:50:16;;;;;;;8.52;2.80;;;9.00;99.90;;;;;;5114459;27;20043;-67
2022/12/29 05:52:44;;;;;;;5.20;2.80;;;8.90;99.90;;;;;;5113937;27;20108;-66
2022/12/29 05:55:12;;;;;;;9.15;2.30;;;8.90;99.90;;;;;;5096064;28;20066;-67
2022/12/29 05:57:39;;;;;;;11.18;2.22;;;9.00;99.90;;;;;;5125380;27;20043;-67
2022/12/29 06:00:06;;;;;;;8.88;2.78;;;9.30;99.90;;;;;;5112544;27;20089;-68
2022/12/29 06:02:34;;;;;;;10.70;2.80;;;9.00;99.90;;;;;;5133521;27;20047;-68
2022/12/29 06:05:01;;;;;;;15.52;2.75;;;9.10;99.90;;;;;;5112604;27;20113;-67
2022/12/29 06:07:27;;;;;;;10.52;3.30;;;9.20;99.90;;;;;;5133489;27;20047;-67
2022/12/29 06:09:56;;;;;;;7.32;2.38;;;9.20;99.90;;;;;;5113699;27;20384;-68
2022/12/29 06:12:23;;;;;;;9.70;2.50;;;9.20;99.90;;;;;;5097414;28;20100;-66
2022/12/29 06:14:49;;;;;;;7.03;2.33;;;9.20;99.90;;;;;;5113902;27;20514;-66
2022/12/29 06:17:16;;;;;;;11.07;2.80;;;9.10;99.90;;;;;;5095426;28;20047;-67
2022/12/29 06:19:44;;;;;;;6.68;2.25;;;9.20;99.90;;;;;;5095078;28;20399;-67
2022/12/29 06:22:11;;;;;;;9.20;2.92;;;9.30;99.90;;;;;;5095496;28;20421;-67
2022/12/29 06:24:39;;;;;;;11.40;2.70;;;9.30;99.90;;;;;;5095315;27;20043;-66
2022/12/29 06:27:07;;;;;;;10.88;2.90;;;9.20;99.90;;;;;;5096508;27;20512;-65
2022/12/29 06:29:36;;;;;;;7.78;2.72;;;9.20;99.90;;;;;;5092771;28;20481;-66
2022/12/29 06:32:03;;;;;;;8.57;2.60;;;9.10;99.90;;;;;;5111383;27;20044;-66
2022/12/29 06:34:29;;;;;;;8.45;2.88;;;9.10;99.90;;;;;;5113227;27;20051;-66
2022/12/29 06:36:56;;;;;;;8.05;2.55;;;9.10;99.90;;;;;;5096154;28;20051;-66
2022/12/29 06:39:23;;;;;;;12.20;2.78;;;9.10;99.90;;;;;;5099395;28;20051;-66
2022/12/29 06:41:53;;;;;;;13.25;2.83;;;9.20;99.90;;;;;;5098689;27;20059;-65
2022/12/29 06:44:22;;;;;;;14.80;2.70;;;9.10;99.90;;;;;;5098748;28;20096;-66
2022/12/29 06:46:49;;;;;;;13.07;3.45;;;9.10;99.90;;;;;;5109713;27;20132;-66
2022/12/29 06:49:16;;;;;;;7.72;2.63;;;9.10;99.90;;;;;;5099907;28;20058;-66
2022/12/29 06:51:43;;;;;;;8.25;2.35;;;9.00;99.90;;;;;;5111739;27;20047;-66
2022/12/29 06:54:10;;;;;;;9.13;3.00;;;9.00;99.90;;;;;;5098641;28;20050;-66
2022/12/29 06:56:37;;;;;;;9.43;2.75;;;9.00;99.90;;;;;;5096458;28;20055;-66
2022/12/29 06:59:04;;;;;;;10.40;2.75;;;8.90;99.90;;;;;;5097489;27;20044;-66
2022/12/29 07:01:34;;;;;;;10.73;3.05;;;8.80;99.90;;;;;;5096749;28;20077;-66
2022/12/29 07:04:01;;;;;;;6.50;2.88;;;8.90;99.90;;;;;;5115332;27;20044;-67
2022/12/29 07:06:27;;;;;;;12.18;2.90;;;8.90;99.90;;;;;;5099059;27;20503;-67
2022/12/29 07:08:56;;;;;;;12.80;3.67;;;8.90;99.90;;;;;;5096730;28;20055;-67
2022/12/29 07:11:23;;;;;;;16.20;2.67;;;8.90;99.90;;;;;;5098083;28;20050;-67
2022/12/29 07:13:50;;;;;;;13.30;2.85;;;9.00;99.90;;;;;;5096600;28;20054;-67
2022/12/29 07:16:17;;;;;;;12.95;2.83;;;9.00;99.90;;;;;;5096236;28;20052;-65
2022/12/29 07:18:45;;;;;;;7.47;2.92;;;9.00;99.90;;;;;;5097555;27;20466;-66
2022/12/29 07:21:12;;;;;;;11.63;3.03;;;9.10;99.90;;;;;;5100588;28;20487;-66
2022/12/29 07:23:39;;;;;;;12.32;2.50;;;9.10;99.90;;;;;;5097244;28;20119;-66
2022/12/29 07:26:08;;;;;;;10.32;3.00;;;9.20;99.90;;;;;;5102635;28;20074;-67
2022/12/29 07:28:37;;;;;;;12.35;3.47;;;9.20;99.90;;;;;;5111884;27;20043;-67
2022/12/29 07:31:05;;;;;;;13.07;3.20;;;9.20;99.90;;;;;;5115268;28;20398;-67
2022/12/29 07:33:32;;;;;;;13.88;3.47;;;9.30;99.90;;;;;;5102223;27;20047;-67
2022/12/29 07:36:01;;;;;;;11.65;2.90;;;9.30;99.90;;;;;;5114420;28;20051;-68
2022/12/29 07:38:27;;;;;;;10.45;2.58;;;9.40;99.90;;;;;;5100592;27;20047;-67
2022/12/29 07:40:58;;;;;;;9.40;3.15;;;9.30;99.90;;;;;;5100856;28;20048;-66
2022/12/29 07:43:25;;;;;;;19.58;3.35;;;9.40;99.90;;;;;;5104603;27;20047;-67
2022/12/29 07:45:51;;;;;;;12.05;2.72;;;9.40;99.90;;;;;;5101766;27;20491;-67
2022/12/29 07:48:18;;;;;;;12.20;2.85;;;9.50;99.90;;;;;;5103714;27;20043;-67
2022/12/29 07:50:45;;;;;;;9.57;3.05;;;9.40;99.90;;;;;;5101466;27;20042;-66
2022/12/29 07:53:14;;;;;;;9.73;2.58;;;9.50;99.90;;;;;;5114465;27;20047;-66
2022/12/29 07:55:41;;;;;;;9.02;2.75;;;9.50;99.90;;;;;;5098225;28;20132;-66
2022/12/29 07:58:08;;;;;;;12.07;3.30;;;9.50;99.90;;;;;;5113870;27;20068;-68
2022/12/29 08:00:35;;;;;;;7.95;2.75;;;9.40;99.90;;;;;;5115116;28;20055;-68
2022/12/29 08:03:02;;;;;;;13.32;3.42;;;9.50;99.90;;;;;;5098869;27;20398;-69
2022/12/29 08:05:29;;;;;;;13.88;3.17;;;9.40;99.90;;;;;;5100997;27;20058;-68
2022/12/29 08:07:56;;;;;;;13.27;3.45;;;9.30;99.90;;;;;;5099094;28;20051;-67
2022/12/29 08:10:25;;;;;;;9.82;2.92;;;9.20;99.90;;;;;;5117072;27;20407;-68
2022/12/29 08:12:52;;;;;;;12.70;3.13;;;9.20;99.90;;;;;;5114664;27;20514;-67
2022/12/29 08:15:19;;;;;;;10.20;3.03;;;9.30;99.90;;;;;;5114337;28;20142;-68
2022/12/29 08:17:46;;;;;;;12.57;2.70;;;9.30;99.90;;;;;;5114173;27;20051;-68
2022/12/29 08:20:12;;;;;;;10.65;2.83;;;9.30;99.90;;;;;;5118126;27;20043;-67
2022/12/29 08:22:41;;;;;;;10.85;3.17;;;9.30;99.90;;;;;;5097223;28;20047;-68
2022/12/29 08:25:09;;;;;;;17.70;3.35;;;9.30;99.90;;;;;;5103014;28;20055;-67
2022/12/29 08:27:37;;;;;;;10.20;2.80;;;9.30;99.90;;;;;;5102398;28;20047;-66
2022/12/29 08:30:05;;;;;;;11.10;2.92;;;9.40;99.90;;;;;;5113864;27;20452;-66
2022/12/29 08:32:33;;;;;;;12.52;3.08;;;9.40;99.90;;;;;;5100430;28;20056;-66
2022/12/29 08:35:00;;;;;;;18.83;4.35;;;9.40;99.90;;;;;;5101306;27;20053;-67
2022/12/29 08:37:27;;;;;;;9.30;2.85;;;9.40;99.90;;;;;;5113989;27;20075;-67
2022/12/29 08:39:54;;;;;;;18.85;3.58;;;9.30;99.90;;;;;;5113605;27;21542;-67
2022/12/29 08:42:21;;;;;;;14.90;4.68;;;9.30;99.90;;;;;;5114475;27;20040;-67
2022/12/29 08:44:49;;;;;;;18.27;3.63;;;9.10;99.90;;;;;;5096548;28;20055;-68
2022/12/29 08:47:16;;;;;;;13.63;3.03;;;9.10;99.90;;;;;;5099176;28;20127;-67
2022/12/29 08:49:43;;;;;;;17.02;3.88;;;9.00;99.90;;;;;;5113869;27;20042;-67
2022/12/29 08:52:10;;;;;;;19.13;3.10;;;9.10;99.90;;;;;;5113509;27;20104;-67
2022/12/29 08:54:37;;;;;;;18.33;3.35;;;9.10;99.90;;;;;;5097960;28;20423;-67
2022/12/29 08:57:04;;;;;;;13.32;3.40;;;9.00;99.90;;;;;;5114193;27;20047;-68
2022/12/29 08:59:31;;;;;;;18.42;3.63;;;9.10;99.90;;;;;;5113319;27;20051;-67
2022/12/29 09:02:00;;;;;;;14.60;3.13;;;9.10;99.90;;;;;;5098953;28;20048;-67
2022/12/29 09:04:27;;;;;;;11.35;3.83;;;9.10;99.90;;;;;;5101487;28;20048;-67
2022/12/29 09:06:54;;;;;;;21.77;4.13;;;9.10;99.90;;;;;;5113989;27;20039;-67
2022/12/29 09:09:21;;;;;;;15.07;3.58;;;9.10;99.90;;;;;;5097892;28;20044;-67
2022/12/29 09:11:48;;;;;;;15.52;4.75;;;9.00;99.90;;;;;;5099680;28;20472;-67
2022/12/29 09:14:15;;;;;;;17.15;3.70;;;8.90;99.90;;;;;;5113602;27;20055;-67
2022/12/29 09:19:29;;;;;;;23.42;4.45;;;8.70;99.90;;;;;;5098266;28;20042;-67
2022/12/29 09:21:56;;;;;;;13.77;3.92;;;8.80;99.90;;;;;;5103489;28;20437;-66
2022/12/29 09:24:23;;;;;;;20.67;4.30;;;8.70;99.90;;;;;;5113053;27;20063;-67
2022/12/29 09:26:50;;;;;;;16.85;3.70;;;8.80;99.90;;;;;;5113744;27;20054;-67
2022/12/29 09:29:16;;;;;;;19.00;3.38;;;8.80;99.90;;;;;;5096555;27;20066;-68
2022/12/29 09:31:43;;;;;;;10.88;3.42;;;8.80;99.90;;;;;;5119747;27;20050;-68
2022/12/29 09:34:10;;;;;;;14.88;3.92;;;8.80;99.90;;;;;;5119147;27;20062;-67
2022/12/29 09:36:38;;;;;;;15.18;3.45;;;8.90;99.90;;;;;;5099252;28;20056;-69
2022/12/29 09:39:05;;;;;;;14.20;4.45;;;8.90;99.90;;;;;;5112897;27;20040;-67
2022/12/29 09:41:39;;;;;;;15.63;3.67;;;9.00;99.90;;;;;;5098899;28;20051;-70
2022/12/29 09:44:14;;;;;;;10.52;3.28;;;8.90;99.90;;;;;;5097874;28;20059;-70
2022/12/29 09:46:44;;;;;;;10.25;3.97;;;9.00;99.90;;;;;;5099366;28;20483;-69
2022/12/29 09:49:22;;;;;;;10.07;3.28;;;9.00;99.90;;;;;;5116683;27;20046;-67
2022/12/29 09:51:53;;;;;;;13.18;3.88;;;8.90;99.90;;;;;;5097843;28;20047;-68
2022/12/29 09:54:35;;;;;;;12.55;4.18;;;8.90;99.90;;;;;;5100855;27;20051;-67
2022/12/29 09:57:02;;;;;;;10.98;2.92;;;8.90;99.90;;;;;;5099623;28;20059;-67
2022/12/29 09:59:39;;;;;;;9.07;3.25;;;9.00;99.90;;;;;;5112508;27;20047;-66
2022/12/29 10:02:21;;;;;;;12.95;4.25;;;9.00;99.90;;;;;;5099736;27;20086;-67
2022/12/29 10:04:48;;;;;;;11.60;3.53;;;8.90;99.90;;;;;;5096599;28;20502;-67
2022/12/29 10:07:28;;;;;;;8.38;3.13;;;8.80;99.90;;;;;;5100399;28;20054;-67
2022/12/29 10:10:05;;;;;;;12.15;3.20;;;8.70;99.90;;;;;;5112321;27;20051;-67
2022/12/29 10:12:45;;;;;;;10.85;3.40;;;8.70;99.90;;;;;;5100939;28;20060;-67
2022/12/29 10:15:19;;;;;;;10.15;3.10;;;8.60;99.90;;;;;;5112192;27;20059;-67
2022/12/29 10:17:54;;;;;;;13.27;3.92;;;8.60;99.90;;;;;;5111954;27;20061;-67
2022/12/29 10:20:31;;;;;;;12.57;3.25;;;8.60;99.90;;;;;;5112359;27;20043;-67
2022/12/29 10:23:27;;;;;;;13.68;3.72;;;8.40;99.90;;;;;;5096852;27;20043;-67
2022/12/29 10:25:56;;;;;;;14.30;3.50;;;8.40;99.90;;;;;;5111751;27;20048;-66
2022/12/29 10:28:25;;;;;;;11.88;3.33;;;8.30;99.90;;;;;;5097650;28;20052;-68
2022/12/29 10:30:54;;;;;;;13.15;3.40;;;8.30;99.90;;;;;;5120490;27;20046;-67
2022/12/29 10:33:25;;;;;;;12.07;3.75;;;8.30;99.90;;;;;;5096875;27;20051;-67
2022/12/29 10:35:52;;;;;;;13.75;3.38;;;8.20;99.90;;;;;;5100050;28;20058;-68
2022/12/29 10:38:27;;;;;;;13.32;3.55;;;8.30;99.90;;;;;;5099141;28;20052;-67
2022/12/29 10:41:00;;;;;;;14.32;2.95;;;8.30;99.90;;;;;;5095305;28;20127;-67
2022/12/29 10:43:29;;;;;;;8.27;3.45;;;8.20;99.90;;;;;;5096587;28;20497;-67
2022/12/29 10:45:58;;;;;;;11.95;3.35;;;8.20;99.90;;;;;;5113260;27;20082;-66
2022/12/29 10:48:29;;;;;;;11.43;3.67;;;8.20;99.90;;;;;;5111660;27;20089;-66
2022/12/29 10:50:59;;;;;;;12.88;4.05;;;8.30;99.90;;;;;;5112160;27;20092;-66
2022/12/29 10:53:34;;;;;;;13.20;4.20;;;8.30;99.90;;;;;;5096476;27;20047;-66
2022/12/29 10:56:04;;;;;;;10.23;3.78;;;8.30;99.90;;;;;;5098819;27;20536;-67
2022/12/29 10:58:32;;;;;;;13.50;3.78;;;8.40;99.90;;;;;;5096664;28;20043;-66
2022/12/29 11:00:59;;;;;;;17.27;3.42;;;8.40;99.90;;;;;;5110649;28;20043;-66
2022/12/29 11:04:02;;;;;;;21.38;4.03;;;8.40;99.90;;;;;;5097076;28;20503;-68
2022/12/29 11:06:30;;;;;;;17.98;5.10;;;8.50;99.90;;;;;;5027652;28;20068;-67
2022/12/29 11:09:01;;;;;;;16.95;4.60;;;8.50;99.90;;;;;;5084363;28;20092;-69
2022/12/29 11:11:34;;;;;;;17.73;4.90;;;8.60;99.90;;;;;;5100152;27;20438;-67
2022/12/29 11:14:11;;;;;;;23.25;4.20;;;8.50;99.90;;;;;;5110586;28;20046;-67
2022/12/29 11:16:38;;;;;;;20.23;4.20;;;8.60;99.90;;;;;;5100524;28;20556;-67
2022/12/29 11:19:05;;;;;;;20.10;4.82;;;8.60;99.90;;;;;;5114681;28;20047;-66
2022/12/29 11:21:39;;;;;;;18.60;4.30;;;8.60;99.90;;;;;;5114013;27;20541;-66
2022/12/29 11:24:22;;;;;;;17.05;4.80;;;8.60;99.90;;;;;;5096047;28;20043;-67
2022/12/29 11:26:52;;;;;;;15.75;4.47;;;8.60;99.90;;;;;;5097769;28;20040;-67
2022/12/29 11:29:25;;;;;;;14.85;4.05;;;8.70;99.90;;;;;;5095002;28;20411;-67
2022/12/29 11:31:54;;;;;;;18.05;4.95;;;8.70;99.90;;;;;;5110701;28;20042;-67
2022/12/29 11:34:23;;;;;;;20.15;5.43;;;8.70;99.90;;;;;;5111261;28;20070;-66
2022/12/29 11:36:52;;;;;;;22.35;4.00;;;8.80;99.90;;;;;;5109970;28;20498;-67
2022/12/29 11:39:38;;;;;;;16.67;4.43;;;8.90;99.90;;;;;;5110562;28;20053;-66
2022/12/29 11:42:09;;;;;;;12.75;3.97;;;8.90;99.90;;;;;;5111990;28;20055;-67
2022/12/29 11:44:37;;;;;;;;;;;9.00;99.90;;;;;;5094987;28;20043;-67
2022/12/29 11:47:06;;;;;;;15.65;5.00;;;9.10;99.90;;;;;;5093895;28;19977;-67
2022/12/29 11:49:33;;;;;;;17.67;4.45;;;9.20;99.90;;;;;;5128280;28;20043;-67
2022/12/29 11:52:01;;;;;;;15.65;4.35;;;9.20;99.90;;;;;;5113272;28;20043;-67
2022/12/29 11:54:33;;;;;;;17.92;5.10;;;9.20;99.90;;;;;;5111362;28;20113;-67
2022/12/29 11:57:11;;;;;;;18.55;4.75;;;9.20;99.90;;;;;;5096803;28;20499;-67
2022/12/29 11:59:43;;;;;;;19.40;4.72;;;9.20;99.90;;;;;;5111292;28;20036;-67
2022/12/29 12:02:37;;;;;;;15.70;3.85;;;9.10;99.90;;;;;;5098496;28;20062;-67
2022/12/29 12:05:14;;;;;;;21.27;4.55;;;9.00;99.90;;;;;;5094753;28;20432;-67
2022/12/29 12:07:43;;;;;;;17.65;4.72;;;9.00;99.90;;;;;;5098170;28;20054;-67
2022/12/29 12:10:23;;;;;;;19.30;5.40;;;9.10;99.90;;;;;;5110686;28;20039;-66
2022/12/29 12:12:57;;;;;;;24.98;5.68;;;9.20;99.90;;;;;;5099548;28;20089;-67
2022/12/29 12:15:28;;;;;;;23.25;6.13;;;9.60;99.90;;;;;;5098659;28;20051;-67
2022/12/29 12:18:01;;;;;;;18.02;3.80;;;9.70;99.90;;;;;;5097551;28;20047;-68
2022/12/29 12:20:37;;;;;;;15.80;4.68;;;9.70;99.90;;;;;;5114958;27;20524;-68
2022/12/29 12:23:20;;;;;;;23.15;5.35;;;9.70;99.90;;;;;;5115368;27;20048;-68
2022/12/29 12:25:57;;;;;;;14.40;3.67;;;9.70;99.90;;;;;;5096441;28;20047;-68
2022/12/29 12:28:33;;;;;;;10.05;3.38;;;9.70;99.90;;;;;;5096098;28;20120;-68
2022/12/29 12:31:01;;;;;;;24.52;4.38;;;9.90;99.90;;;;;;5095513;28;20055;-67
2022/12/29 12:33:32;;;;;;;16.77;4.38;;;9.90;99.90;;;;;;5114632;27;20047;-68
2022/12/29 12:36:14;;;;;;;17.58;4.15;;;9.80;99.90;;;;;;5114290;27;20051;-66
2022/12/29 12:38:49;;;;;;;15.77;4.93;;;9.70;99.90;;;;;;5095472;28;20059;-66
2022/12/29 12:41:26;;;;;;;9.90;2.72;;;9.60;99.90;;;;;;5102069;27;20409;-67
2022/12/29 12:44:01;;;;;;;10.27;2.95;;;9.50;99.90;;;;;;5114119;28;20136;-66
2022/12/29 12:46:59;;;;;;;16.58;3.53;;;9.40;99.90;;;;;;5095206;28;20115;-66
2022/12/29 12:49:59;;;;;;;15.50;4.07;;;9.70;99.90;;;;;;5114353;27;20130;-67
2022/12/29 12:52:34;;;;;;;14.73;4.40;;;9.80;99.90;;;;;;5062982;28;20070;-67
2022/12/29 12:55:31;;;;;;;11.07;3.13;;;9.70;99.90;;;;;;5096674;27;20051;-66
2022/12/29 12:58:05;;;;;;;11.27;3.60;;;9.70;99.90;;;;;;5097197;27;20373;-66
2022/12/29 13:00:38;;;;;;;8.93;2.88;;;9.80;99.90;;;;;;5114764;27;20050;-66
2022/12/29 13:03:11;;;;;;;9.70;3.00;;;9.90;99.90;;;;;;5111722;27;20059;-67
2022/12/29 13:06:07;;;;;;;9.52;2.53;;;9.80;99.90;;;;;;5134587;27;20043;-67
2022/12/29 13:09:11;;;;;;;9.40;2.17;;;9.60;99.90;;;;;;5114689;27;20040;-67
2022/12/29 13:11:52;;;;;;;9.85;2.22;;;9.50;99.90;;;;;;5055993;28;20449;-66
2022/12/29 13:14:35;;;;;;;11.40;2.63;;;9.40;99.90;;;;;;5114592;27;20048;-66
2022/12/29 13:17:10;;;;;;;11.52;2.53;;;9.40;99.90;;;;;;5114902;27;20450;-66
2022/12/29 13:19:43;;;;;;;9.43;2.65;;;9.30;99.90;;;;;;5096678;28;20051;-66
2022/12/29 13:22:13;;;;;;;7.68;2.72;;;9.20;99.90;;;;;;5114396;27;20441;-67
2022/12/29 13:24:56;;;;;;;15.02;2.97;;;9.20;99.90;;;;;;5093992;28;20519;-66
2022/12/29 13:27:30;;;;;;;10.23;2.10;;;9.20;99.90;;;;;;5098103;27;20495;-66
2022/12/29 13:30:04;;;;;;;8.02;2.90;;;9.20;99.90;;;;;;5095653;27;20054;-66
2022/12/29 13:32:43;;;;;;;8.63;2.70;;;9.20;99.90;;;;;;5095949;27;20728;-67
2022/12/29 13:35:22;;;;;;;14.52;3.05;;;9.10;99.90;;;;;;5098296;28;21105;-67
2022/12/29 13:37:54;;;;;;;7.53;2.53;;;9.00;99.90;;;;;;5100429;28;20155;-67
2022/12/29 13:40:25;;;;;;;6.00;2.33;;;9.00;99.90;;;;;;5121126;27;20058;-67
2022/12/29 13:42:53;;;;;;;7.30;2.22;;;9.00;99.90;;;;;;5112094;27;20043;-66
2022/12/29 13:45:25;;;;;;;13.02;2.80;;;9.00;99.90;;;;;;5097711;27;20510;-67
2022/12/29 13:47:58;;;;;;;11.10;3.28;;;9.00;99.90;;;;;;5099842;27;20062;-65